createdAt,value
2022-12-05T00:01:19.592Z,90.14
2022-12-05T00:03:47.563Z,88.67
2022-12-05T00:06:14.559Z,89.98
2022-12-05T00:08:41.024Z,87.39
2022-12-05T00:11:12.759Z,83.90
2022-12-05T00:13:40.663Z,86.29
2022-12-05T00:16:12.781Z,89.90
2022-12-05T00:18:39.851Z,87.38
2022-12-05T00:21:07.258Z,87.78
2022-12-05T00:23:33.998Z,87.87
2022-12-05T00:26:04.783Z,89.60
2022-12-05T00:28:32.482Z,89.66
2022-12-05T00:31:06.592Z,89.51
2022-12-05T00:33:33.043Z,88.26
2022-12-05T00:36:08.268Z,87.76
2022-12-05T00:38:35.126Z,86.69
2022-12-05T00:41:06.540Z,87.37
2022-12-05T00:43:33.435Z,87.43
2022-12-05T00:46:08.818Z,87.56
2022-12-05T00:48:35.689Z,85.17
2022-12-05T00:51:06.109Z,82.47
2022-12-05T00:53:32.764Z,86.94
2022-12-05T00:56:11.559Z,85.24
2022-12-05T00:58:38.192Z,89.42
2022-12-05T01:01:10.192Z,86.29
2022-12-05T01:03:36.727Z,87.53
2022-12-05T01:06:05.890Z,88.34
2022-12-05T01:08:33.490Z,89.42
2022-12-05T01:11:00.352Z,89.25
2022-12-05T01:13:28.374Z,89.46
2022-12-05T01:15:55.256Z,87.00
2022-12-05T01:18:22.839Z,88.21
2022-12-05T01:20:49.889Z,87.22
2022-12-05T01:23:16.880Z,85.86
2022-12-05T01:25:45.746Z,85.29
2022-12-05T01:28:13.301Z,84.82
2022-12-05T01:30:41.727Z,83.63
2022-12-05T01:33:08.594Z,82.93
2022-12-05T01:35:36.633Z,85.11
2022-12-05T01:38:03.528Z,85.39
2022-12-05T01:40:30.450Z,87.50
2022-12-05T01:42:56.998Z,85.78
2022-12-05T01:45:42.226Z,87.84
2022-12-05T01:48:18.122Z,85.05
2022-12-05T01:50:45.261Z,85.08
2022-12-05T01:53:11.889Z,87.78
2022-12-05T01:55:38.862Z,86.45
2022-12-05T01:58:09.306Z,88.25
2022-12-05T02:00:35.812Z,89.86
2022-12-05T02:03:07.928Z,89.65
2022-12-05T02:05:36.336Z,86.44
2022-12-05T02:08:06.376Z,86.22
2022-12-05T02:10:43.383Z,86.80
2022-12-05T02:13:26.726Z,88.94
2022-12-05T02:16:14.295Z,86.36
2022-12-05T02:18:52.710Z,83.80
2022-12-05T02:21:39.119Z,84.71
2022-12-05T02:24:36.290Z,85.59
2022-12-05T02:27:11.745Z,87.60
2022-12-05T02:29:41.083Z,88.65
2022-12-05T02:32:18.675Z,88.87
2022-12-05T02:35:20.190Z,91.26
2022-12-05T02:38:01.964Z,89.45
2022-12-05T02:40:39.490Z,88.60
2022-12-05T02:43:19.011Z,90.04
2022-12-05T02:45:49.957Z,89.59
2022-12-05T02:48:18.070Z,88.19
2022-12-05T02:50:48.851Z,87.13
2022-12-05T02:53:17.757Z,84.82
2022-12-05T02:55:46.488Z,85.24
2022-12-05T02:58:21.754Z,87.62
2022-12-05T03:00:50.368Z,85.99
2022-12-05T03:03:19.588Z,87.54
2022-12-05T03:06:07.296Z,88.65
2022-12-05T03:08:59.203Z,88.97
2022-12-05T03:11:28.870Z,85.92
2022-12-05T03:14:01.120Z,88.14
2022-12-05T03:16:40.360Z,89.20
2022-12-05T03:19:15.500Z,88.01
2022-12-05T03:21:51.850Z,90.41
2022-12-05T03:24:18.769Z,88.73
2022-12-05T03:27:20.341Z,90.22
2022-12-05T03:29:52.724Z,90.49
2022-12-05T03:32:22.201Z,89.21
2022-12-05T03:35:26.357Z,86.05
2022-12-05T03:38:00.349Z,88.33
2022-12-05T03:40:41.654Z,84.85
2022-12-05T03:43:18.860Z,89.10
2022-12-05T03:45:54.320Z,88.97
2022-12-05T03:48:34.563Z,86.87
2022-12-05T03:51:03.887Z,86.80
2022-12-05T03:53:41.931Z,83.34
2022-12-05T03:56:13.064Z,88.97
2022-12-05T03:58:53.734Z,88.50
2022-12-05T04:01:24.302Z,87.19
2022-12-05T04:03:57.578Z,86.10
2022-12-05T04:06:32.171Z,84.30
2022-12-05T04:09:16.672Z,85.43
2022-12-05T04:11:51.042Z,84.90
2022-12-05T04:14:26.333Z,82.60
2022-12-05T04:17:05.424Z,85.80
2022-12-05T04:20:05.826Z,87.18
2022-12-05T04:22:33.246Z,86.84
2022-12-05T04:25:28.888Z,85.85
2022-12-05T04:28:21.480Z,85.77
2022-12-05T04:31:03.931Z,87.78
2022-12-05T04:34:12.096Z,88.01
2022-12-05T04:36:53.908Z,88.02
2022-12-05T04:39:25.674Z,88.46
2022-12-05T04:41:58.228Z,89.79
2022-12-05T04:44:34.728Z,89.97
2022-12-05T04:47:04.658Z,88.64
2022-12-05T04:49:33.226Z,87.59
2022-12-05T04:52:05.366Z,88.20
2022-12-05T04:54:34.699Z,88.30
2022-12-05T04:57:12.718Z,86.54
2022-12-05T04:59:39.268Z,85.08
2022-12-05T05:02:09.147Z,84.58
2022-12-05T05:04:40.937Z,82.83
2022-12-05T05:07:09.220Z,82.06
2022-12-05T05:09:36.231Z,82.27
2022-12-05T05:12:02.947Z,81.07
2022-12-05T05:14:30.180Z,80.93
2022-12-05T05:16:57.268Z,83.23
2022-12-05T05:19:24.058Z,83.01
2022-12-05T05:21:51.684Z,82.78
2022-12-05T05:24:18.814Z,83.06
2022-12-05T05:26:46.123Z,82.27
2022-12-05T05:29:13.515Z,81.42
2022-12-05T05:31:41.887Z,83.79
2022-12-05T05:34:10.022Z,82.34
2022-12-05T05:36:37.813Z,80.44
2022-12-05T05:39:06.787Z,82.29
2022-12-05T05:41:36.209Z,81.24
2022-12-05T05:44:04.652Z,82.90
2022-12-05T05:46:33.413Z,81.04
2022-12-05T05:48:59.935Z,80.76
2022-12-05T05:51:29.116Z,81.93
2022-12-05T05:53:56.835Z,84.23
2022-12-05T05:56:23.369Z,83.51
2022-12-05T05:58:56.310Z,84.11
2022-12-05T06:01:23.082Z,84.48
2022-12-05T06:03:51.024Z,82.52
2022-12-05T06:06:19.035Z,84.46
2022-12-05T06:08:46.382Z,83.88
2022-12-05T06:11:25.226Z,85.87
2022-12-05T06:13:56.824Z,86.20
2022-12-05T06:16:23.743Z,86.33
2022-12-05T06:18:50.410Z,86.46
2022-12-05T06:21:17.647Z,83.33
2022-12-05T06:23:44.316Z,82.34
2022-12-05T06:26:13.466Z,82.63
2022-12-05T06:28:40.498Z,83.23
2022-12-05T06:31:09.654Z,83.48
2022-12-05T06:33:36.241Z,83.98
2022-12-05T06:36:10.489Z,83.74
2022-12-05T06:38:41.731Z,84.44
2022-12-05T06:41:11.882Z,82.71
2022-12-05T06:43:38.396Z,83.52
2022-12-05T06:46:07.029Z,82.64
2022-12-05T06:48:33.848Z,85.32
2022-12-05T06:51:00.444Z,84.41
2022-12-05T06:53:27.338Z,83.53
2022-12-05T06:56:03.950Z,81.81
2022-12-05T06:58:30.965Z,84.10
2022-12-05T07:01:15.763Z,84.21
2022-12-05T07:03:47.599Z,82.56
2022-12-05T07:06:14.544Z,85.11
2022-12-05T07:08:41.496Z,84.98
2022-12-05T07:11:08.393Z,84.22
2022-12-05T07:13:34.828Z,85.30
2022-12-05T07:16:01.432Z,85.76
2022-12-05T07:18:28.115Z,85.59
2022-12-05T07:21:12.858Z,85.55
2022-12-05T07:23:41.657Z,84.77
2022-12-05T07:26:10.315Z,85.32
2022-12-05T07:28:36.838Z,84.45
2022-12-05T07:31:05.982Z,85.49
2022-12-05T07:33:32.554Z,85.05
2022-12-05T07:36:20.364Z,83.34
2022-12-05T07:38:47.200Z,82.31
2022-12-05T07:41:25.269Z,80.78
2022-12-05T07:43:56.235Z,84.22
2022-12-05T07:46:23.932Z,85.72
2022-12-05T07:48:50.963Z,84.53
2022-12-05T07:51:18.113Z,86.09
2022-12-05T07:53:45.030Z,88.46
2022-12-05T07:56:17.028Z,86.90
2022-12-05T07:58:45.605Z,86.86
2022-12-05T08:01:18.422Z,86.73
2022-12-05T08:03:45.895Z,88.29
2022-12-05T08:06:21.501Z,87.45
2022-12-05T08:08:50.037Z,88.17
2022-12-05T08:11:19.600Z,87.30
2022-12-05T08:13:46.287Z,87.62
2022-12-05T08:16:16.034Z,85.43
2022-12-05T08:18:43.352Z,87.55
2022-12-05T08:21:15.435Z,88.08
2022-12-05T08:23:43.119Z,84.89
2022-12-05T08:26:14.036Z,83.89
2022-12-05T08:28:41.176Z,84.68
2022-12-05T08:31:12.475Z,83.93
2022-12-05T08:33:39.066Z,82.04
2022-12-05T08:36:08.191Z,84.49
2022-12-05T08:38:35.613Z,85.41
2022-12-05T08:41:04.253Z,85.00
2022-12-05T08:43:31.453Z,84.48
2022-12-05T08:45:58.592Z,82.13
2022-12-05T08:48:29.414Z,81.72
2022-12-05T08:50:56.538Z,81.30
2022-12-05T08:53:22.961Z,82.04
2022-12-05T08:55:49.458Z,82.62
2022-12-05T08:58:16.063Z,83.59
2022-12-05T09:00:42.722Z,83.33
2022-12-05T09:03:12.417Z,85.31
2022-12-05T09:05:39.145Z,85.78
2022-12-05T09:08:05.675Z,87.29
2022-12-05T09:10:32.248Z,88.86
2022-12-05T09:12:58.683Z,86.92
2022-12-05T09:15:25.299Z,85.65
2022-12-05T09:17:51.842Z,85.65
2022-12-05T09:20:18.420Z,84.53
2022-12-05T09:22:44.884Z,82.54
2022-12-05T09:25:11.358Z,82.14
2022-12-05T09:27:37.988Z,80.94
2022-12-05T09:30:06.011Z,80.13
2022-12-05T09:32:32.507Z,79.99
2022-12-05T09:34:59.244Z,80.83
2022-12-05T09:37:41.155Z,83.34
2022-12-05T09:40:15.286Z,81.22
2022-12-05T09:42:55.839Z,81.21
2022-12-05T09:45:26.386Z,81.86
2022-12-05T09:48:07.145Z,80.41
2022-12-05T09:50:48.263Z,81.78
2022-12-05T09:53:17.442Z,81.91
2022-12-05T09:55:45.488Z,83.04
2022-12-05T09:58:20.815Z,85.89
2022-12-05T10:00:49.611Z,83.55
2022-12-05T10:03:25.937Z,86.64
2022-12-05T10:06:11.177Z,86.65
2022-12-05T10:09:03.975Z,85.06
2022-12-05T10:11:39.249Z,84.46
2022-12-05T10:14:49.315Z,85.94
2022-12-05T10:18:07.725Z,83.90
2022-12-05T10:20:38.585Z,84.25
2022-12-05T10:23:41.227Z,82.31
2022-12-05T10:26:07.708Z,82.80
2022-12-05T10:28:40.154Z,82.40
2022-12-05T10:31:11.613Z,82.48
2022-12-05T10:33:44.671Z,83.29
2022-12-05T10:36:13.252Z,83.44
2022-12-05T10:38:41.006Z,84.72
2022-12-05T10:41:09.887Z,86.54
2022-12-05T10:43:37.920Z,87.04
2022-12-05T10:46:07.827Z,88.28
2022-12-05T10:48:38.400Z,85.61
2022-12-05T10:51:14.440Z,86.85
2022-12-05T10:53:42.826Z,86.60
2022-12-05T10:56:43.762Z,87.11
2022-12-05T10:59:13.790Z,83.65
2022-12-05T11:01:51.174Z,85.48
2022-12-05T11:04:30.359Z,84.95
2022-12-05T11:07:02.332Z,85.03
2022-12-05T11:09:30.323Z,85.95
2022-12-05T11:12:09.085Z,85.12
2022-12-05T11:14:36.330Z,82.92
2022-12-05T11:17:04.996Z,83.18
2022-12-05T11:19:37.235Z,83.13
2022-12-05T11:22:07.878Z,83.95
2022-12-05T11:24:36.795Z,84.81
2022-12-05T11:27:27.846Z,85.16
2022-12-05T11:30:14.505Z,85.84
2022-12-05T11:32:40.930Z,85.92
2022-12-05T11:35:13.330Z,85.96
2022-12-05T11:38:05.476Z,86.36
2022-12-05T11:40:40.905Z,84.92
2022-12-05T11:43:13.343Z,86.00
2022-12-05T11:46:09.128Z,83.12
2022-12-05T11:48:50.425Z,83.45
2022-12-05T11:51:38.464Z,84.44
2022-12-05T11:55:03.264Z,85.69
2022-12-05T11:57:39.321Z,87.24
2022-12-05T12:00:12.602Z,84.26
2022-12-05T12:03:14.701Z,83.18
2022-12-05T12:05:45.357Z,80.78
2022-12-05T12:08:17.751Z,79.95
2022-12-05T12:11:19.570Z,79.69
2022-12-05T12:14:00.326Z,82.22
2022-12-05T12:16:45.222Z,84.24
2022-12-05T12:19:25.075Z,82.86
2022-12-05T12:22:19.500Z,80.54
2022-12-05T12:24:45.876Z,81.14
2022-12-05T12:27:21.191Z,82.49
2022-12-05T12:30:02.762Z,81.21
2022-12-05T12:32:51.086Z,82.37
2022-12-05T12:35:17.483Z,80.25
2022-12-05T12:37:50.006Z,83.15
2022-12-05T12:40:22.937Z,84.96
2022-12-05T12:43:44.782Z,84.58
2022-12-05T12:46:25.657Z,84.67
2022-12-05T12:49:10.460Z,83.37
2022-12-05T12:51:52.261Z,86.47
2022-12-05T12:54:47.341Z,83.95
2022-12-05T12:57:23.963Z,83.70
2022-12-05T13:00:09.311Z,83.03
2022-12-05T13:02:38.710Z,82.01
2022-12-05T13:05:34.711Z,80.19
2022-12-05T13:08:32.479Z,80.09
2022-12-05T13:11:01.661Z,79.21
2022-12-05T13:13:36.723Z,79.94
2022-12-05T13:16:07.670Z,78.49
2022-12-05T13:18:35.347Z,78.53
2022-12-05T13:21:07.126Z,78.07
2022-12-05T13:23:41.291Z,78.72
2022-12-05T13:26:10.640Z,79.60
2022-12-05T13:28:45.028Z,78.85
2022-12-05T13:31:16.624Z,79.38
2022-12-05T13:33:44.686Z,78.80
2022-12-05T13:36:32.272Z,80.15
2022-12-05T13:39:24.069Z,81.11
2022-12-05T13:42:15.216Z,79.25
2022-12-05T13:44:55.533Z,78.83
2022-12-05T13:47:48.102Z,80.32
2022-12-05T13:50:56.444Z,79.58
2022-12-05T13:53:31.324Z,78.62
2022-12-05T13:56:03.998Z,80.60
2022-12-05T13:58:37.966Z,81.38
2022-12-05T14:01:23.380Z,79.04
2022-12-05T14:03:49.783Z,78.36
2022-12-05T14:06:42.145Z,78.23
2022-12-05T14:09:17.617Z,77.85
2022-12-05T14:12:12.275Z,78.65
2022-12-05T14:14:57.131Z,78.91
2022-12-05T14:17:30.007Z,79.48
2022-12-05T14:20:05.134Z,77.71
2022-12-05T14:23:04.084Z,79.07
2022-12-05T14:25:49.132Z,78.97
2022-12-05T14:33:03.937Z,77.67
2022-12-05T14:35:40.971Z,77.12
2022-12-05T14:39:01.272Z,78.05
2022-12-05T14:41:37.663Z,78.88
2022-12-05T14:44:08.562Z,78.61
2022-12-05T14:47:03.276Z,78.50
2022-12-05T14:53:39.159Z,78.08
2022-12-05T14:56:27.462Z,77.43
2022-12-05T14:59:11.665Z,80.03
2022-12-05T15:01:38.075Z,80.26
2022-12-05T15:04:32.581Z,77.96
2022-12-05T15:07:08.152Z,77.60
2022-12-05T15:09:40.480Z,77.60
2022-12-05T15:12:14.769Z,77.74
2022-12-05T15:14:50.185Z,77.46
2022-12-05T15:17:23.370Z,77.94
2022-12-05T15:20:00.264Z,79.60
2022-12-05T15:22:28.993Z,79.29
2022-12-05T15:24:55.572Z,79.14
2022-12-05T15:27:22.180Z,79.03
2022-12-05T15:29:53.318Z,79.23
2022-12-05T15:32:24.264Z,78.45
2022-12-05T15:35:02.367Z,79.41
2022-12-05T15:37:34.198Z,78.25
2022-12-05T15:40:17.828Z,77.86
2022-12-05T15:42:46.611Z,77.86
2022-12-05T15:45:15.741Z,77.71
2022-12-05T15:47:44.781Z,78.67
2022-12-05T15:50:40.824Z,77.96
2022-12-05T15:53:16.687Z,80.22
2022-12-05T15:56:14.234Z,80.11
2022-12-05T15:58:52.347Z,79.31
2022-12-05T16:01:23.630Z,78.83
2022-12-05T16:04:13.247Z,79.31
2022-12-05T16:06:43.290Z,77.96
2022-12-05T16:09:17.142Z,79.30
2022-12-05T16:11:55.026Z,78.08
2022-12-05T16:14:57.831Z,78.69
2022-12-05T16:17:15.614Z,78.60
2022-12-05T16:19:42.090Z,78.47
2022-12-05T16:22:20.999Z,79.19
2022-12-05T16:25:01.625Z,79.50
2022-12-05T16:27:39.301Z,81.19
2022-12-05T16:30:20.810Z,80.19
2022-12-05T16:32:49.615Z,80.05
2022-12-05T16:35:45.611Z,79.77
2022-12-05T16:38:20.993Z,79.15
2022-12-05T16:41:00.924Z,80.45
2022-12-05T16:43:42.570Z,78.76
2022-12-05T16:46:15.108Z,77.90
2022-12-05T16:48:47.412Z,78.22
2022-12-05T16:51:13.946Z,77.70
2022-12-05T16:53:43.036Z,79.80
2022-12-05T16:56:21.174Z,77.83
2022-12-05T16:58:47.688Z,78.20
2022-12-05T17:01:22.421Z,79.10
2022-12-05T17:03:48.956Z,79.75
2022-12-05T17:06:16.168Z,79.77
2022-12-05T17:08:42.805Z,78.27
2022-12-05T17:11:18.312Z,78.01
2022-12-05T17:13:48.305Z,77.67
2022-12-05T17:16:16.362Z,77.56
2022-12-05T17:18:42.989Z,79.31
2022-12-05T17:21:32.264Z,78.57
2022-12-05T17:23:59.278Z,79.68
2022-12-05T17:26:26.461Z,80.33
2022-12-05T17:28:52.997Z,78.89
2022-12-05T17:31:22.071Z,79.40
2022-12-05T17:33:50.390Z,78.36
2022-12-05T17:36:17.286Z,78.22
2022-12-05T17:38:44.218Z,77.85
2022-12-05T17:41:17.266Z,78.52
2022-12-05T17:43:45.518Z,79.75
2022-12-05T17:46:17.256Z,78.60
2022-12-05T17:48:43.768Z,79.11
2022-12-05T17:51:11.372Z,80.11
2022-12-05T17:53:38.573Z,81.46
2022-12-05T17:56:05.581Z,80.61
2022-12-05T17:58:32.666Z,78.72
2022-12-05T18:00:59.871Z,79.53
2022-12-05T18:03:26.596Z,78.59
2022-12-05T18:05:53.126Z,77.89
2022-12-05T18:08:19.668Z,79.37
2022-12-05T18:10:48.654Z,80.52
2022-12-05T18:13:16.358Z,79.33
2022-12-05T18:15:43.701Z,80.00
2022-12-05T18:18:18.008Z,79.81
2022-12-05T18:20:44.684Z,79.33
2022-12-05T18:23:11.180Z,79.90
2022-12-05T18:25:38.018Z,79.00
2022-12-05T18:28:04.488Z,78.68
2022-12-05T18:30:30.955Z,77.92
2022-12-05T18:32:57.500Z,79.49
2022-12-05T18:35:40.303Z,79.10
2022-12-05T18:38:11.072Z,77.49
2022-12-05T18:40:37.845Z,79.06
2022-12-05T18:43:04.555Z,79.33
2022-12-05T18:45:31.018Z,79.30
2022-12-05T18:48:09.873Z,77.97
2022-12-05T18:50:44.599Z,78.51
2022-12-05T18:53:11.080Z,77.52
2022-12-05T18:56:04.753Z,77.66
2022-12-05T18:58:24.330Z,79.91
2022-12-05T19:00:50.841Z,80.99
2022-12-05T19:03:17.407Z,81.42
2022-12-05T19:05:43.875Z,80.85
2022-12-05T19:08:10.411Z,80.39
2022-12-05T19:10:37.051Z,78.31
2022-12-05T19:13:03.503Z,81.15
2022-12-05T19:15:29.930Z,81.69
2022-12-05T19:17:56.397Z,80.88
2022-12-05T19:20:22.834Z,79.75
2022-12-05T19:22:49.386Z,79.12
2022-12-05T19:25:15.893Z,78.59
2022-12-05T19:27:42.382Z,81.10
2022-12-05T19:30:10.286Z,81.43
2022-12-05T19:32:40.404Z,78.66
2022-12-05T19:35:07.815Z,79.18
2022-12-05T19:37:34.368Z,79.85
2022-12-05T19:40:01.070Z,78.88
2022-12-05T19:42:29.451Z,77.89
2022-12-05T19:44:55.920Z,79.91
2022-12-05T19:47:22.539Z,79.32
2022-12-05T19:49:49.021Z,79.15
2022-12-05T19:52:17.816Z,79.66
2022-12-05T19:54:47.212Z,79.52
2022-12-05T19:57:13.734Z,78.69
2022-12-05T19:59:40.199Z,80.13
2022-12-05T20:02:06.919Z,79.66
2022-12-05T20:04:33.455Z,78.49
2022-12-05T20:06:59.972Z,79.45
2022-12-05T20:09:26.676Z,79.79
2022-12-05T20:11:55.580Z,79.77
2022-12-05T20:14:24.117Z,79.01
2022-12-05T20:16:50.644Z,79.08
2022-12-05T20:19:17.118Z,79.20
2022-12-05T20:21:44.487Z,79.80
2022-12-05T20:24:11.417Z,78.43
2022-12-05T20:26:40.416Z,79.52
2022-12-05T20:29:07.432Z,80.08
2022-12-05T20:31:39.718Z,79.87
2022-12-05T20:34:07.430Z,78.80
2022-12-05T20:36:34.766Z,80.82
2022-12-05T20:39:07.224Z,80.71
2022-12-05T20:41:34.013Z,79.74
2022-12-05T20:44:02.757Z,79.11
2022-12-05T20:46:30.265Z,80.31
2022-12-05T20:48:57.136Z,79.47
2022-12-05T20:51:29.495Z,81.23
2022-12-05T20:53:57.882Z,82.12
2022-12-05T20:56:34.573Z,81.72
2022-12-05T20:59:04.020Z,80.40
2022-12-05T21:01:35.480Z,80.38
2022-12-05T21:04:03.530Z,80.48
2022-12-05T21:06:32.992Z,79.90
2022-12-05T21:09:00.782Z,80.77
2022-12-05T21:11:28.603Z,80.18
2022-12-05T21:13:56.804Z,80.49
2022-12-05T21:16:23.810Z,82.55
2022-12-05T21:18:51.284Z,81.65
2022-12-05T21:21:26.120Z,80.73
2022-12-05T21:24:33.835Z,80.17
2022-12-05T21:27:03.041Z,79.57
2022-12-05T21:29:32.705Z,79.95
2022-12-05T21:32:04.879Z,78.80
2022-12-05T21:34:31.403Z,79.61
2022-12-05T21:36:59.153Z,80.86
2022-12-05T21:39:25.570Z,81.63
2022-12-05T21:41:52.091Z,80.79
2022-12-05T21:44:19.832Z,80.06
2022-12-05T21:46:46.365Z,80.84
2022-12-05T21:49:12.783Z,81.29
2022-12-05T21:51:39.230Z,79.95
2022-12-05T21:54:05.718Z,79.77
2022-12-05T21:56:32.256Z,79.80
2022-12-05T21:58:58.691Z,81.01
2022-12-05T22:01:27.720Z,80.64
2022-12-05T22:03:59.016Z,80.18
2022-12-05T22:06:26.176Z,80.40
2022-12-05T22:08:54.122Z,81.97
2022-12-05T22:11:22.846Z,82.04
2022-12-05T22:13:49.883Z,82.05
2022-12-05T22:16:17.075Z,82.77
2022-12-05T22:18:44.157Z,80.84
2022-12-05T22:21:13.905Z,82.28
2022-12-05T22:23:40.445Z,79.86
2022-12-05T22:26:09.714Z,80.39
2022-12-05T22:28:36.465Z,81.14
2022-12-05T22:31:05.658Z,81.62
2022-12-05T22:33:32.696Z,81.98
2022-12-05T22:36:00.479Z,82.13
2022-12-05T22:38:29.512Z,81.21
2022-12-05T22:40:57.759Z,81.18
2022-12-05T22:43:25.674Z,81.02
2022-12-05T22:45:52.215Z,81.90
2022-12-05T22:48:19.253Z,81.42
2022-12-05T22:50:50.085Z,82.45
2022-12-05T22:53:19.578Z,83.27
2022-12-05T22:55:46.084Z,82.51
2022-12-05T22:58:12.602Z,82.93
2022-12-05T23:00:39.089Z,81.63
2022-12-05T23:03:05.751Z,83.21
2022-12-05T23:05:32.556Z,82.20
2022-12-05T23:07:59.449Z,80.87
2022-12-05T23:10:26.106Z,81.77
2022-12-05T23:12:52.527Z,81.48
2022-12-05T23:15:21.789Z,82.98
2022-12-05T23:17:48.977Z,81.93
2022-12-05T23:20:15.935Z,82.21
2022-12-05T23:22:42.360Z,82.09
2022-12-05T23:25:09.616Z,83.16
2022-12-05T23:27:36.052Z,84.20
2022-12-05T23:30:02.525Z,83.81
2022-12-05T23:32:28.947Z,84.84
2022-12-05T23:34:55.418Z,84.84
2022-12-05T23:37:21.876Z,82.17
2022-12-05T23:39:48.303Z,83.27
2022-12-05T23:42:15.487Z,82.45
2022-12-05T23:44:41.973Z,82.42
2022-12-05T23:47:08.455Z,82.12
2022-12-05T23:49:34.954Z,81.11
2022-12-05T23:52:01.352Z,82.73
2022-12-05T23:54:27.856Z,84.43
2022-12-05T23:56:54.310Z,83.37
2022-12-05T23:59:20.830Z,83.15
